SCTB weather

Eulogio Sánchez Airport
Santiago, Santiago Metropolitan Region, Chile

Public forecast

Using degrees Celsius for public forecast. Weather courtesy of forecast.io.

METAR (pilot weather report)

Retrieved 2019/07/20 19:00 UTC (4 minutes ago):

SCTB 201900Z 24003KT 5000 HZ SCT150 BKN180 17/M05 Q1012

TAF (pilot weather forecast)

Closest forecast is Comodoro Arturo Merino Benítez International Airport, 12.6 nm (23.3 km) WNW. Retrieved 2019/07/20 18:00 UTC (1 hour ago):

TAF SCEL 201641Z 2018/2118 16004KT 6000 SCT180 BKN200 TX15/2019Z TN08/2110Z BECMG 2104/2106 05004KT SCT080 BKN200 BECMG 2108/2110 16006KT 9999 SCT030 BKN080 BECMG 2111/2113 13006KT 7000 -RA BKN020 OVC040 TEMPO 2114/2116 03004KT RA FEW007 SCT020 OVC050